Time,TemperatureF,DewpointF,PressureIn,WindDirection,WindDirectionDegrees,WindSpeedMPH,WindSpeedGustMPH,Humidity,HourlyPrecipIn,Conditions,Clouds,dailyrainin,SolarRadiationWatts/m^2,SoftwareType,DateUTC
2013-10-23 00:02:00,27.4,24.9,30.02,North,355,3.0,3.0,90,0.00,,,0.00,0,Wunderground v.1.15,2013-10-23 05:02:00,
2013-10-23 00:08:00,28.0,25.4,30.02,North,355,1.0,3.0,90,0.00,,,0.00,0,Wunderground v.1.15,2013-10-23 05:08:00,
2013-10-23 00:13:00,28.1,25.5,30.02,North,355,2.0,2.0,90,0.00,,,0.00,0,Wunderground v.1.15,2013-10-23 05:13:00,
2013-10-23 00:18:00,28.1,25.5,30.02,North,355,0.0,2.0,90,0.00,,,0.00,0,Wunderground v.1.15,2013-10-23 05:18:00,
2013-10-23 00:23:00,27.9,25.3,30.02,North,355,1.0,2.0,90,0.00,,,0.00,0,Wunderground v.1.15,2013-10-23 05:23:00,
2013-10-23 00:28:00,27.8,25.2,30.02,North,355,1.0,2.0,90,0.00,,,0.00,0,Wunderground v.1.15,2013-10-23 05:28:00,
2013-10-23 00:34:00,27.8,25.2,30.02,North,355,2.0,2.0,90,0.00,,,0.00,0,Wunderground v.1.15,2013-10-23 05:34:00,
2013-10-23 00:39:00,27.7,25.2,30.02,North,355,0.0,3.0,90,0.00,,,0.00,0,Wunderground v.1.15,2013-10-23 05:39:00,
2013-10-23 00:44:00,27.7,25.2,30.02,North,355,0.0,2.0,90,0.00,,,0.00,0,Wunderground v.1.15,2013-10-23 05:44:00,
2013-10-23 00:50:00,27.6,25.1,30.01,North,355,0.0,0.0,90,0.00,,,0.00,0,Wunderground v.1.15,2013-10-23 05:50:00,
2013-10-23 00:55:00,27.4,24.9,30.02,North,355,0.0,0.0,90,0.00,,,0.00,0,Wunderground v.1.15,2013-10-23 05:55:00,
2013-10-23 01:00:00,27.5,25.0,30.01,North,355,0.0,0.0,90,0.00,,,0.00,0,Wunderground v.1.15,2013-10-23 06:00:00,
2013-10-23 01:06:00,27.7,25.2,30.01,North,355,2.0,2.0,90,0.00,,,0.00,0,Wunderground v.1.15,2013-10-23 06:06:00,
2013-10-23 01:11:00,28.0,25.4,30.01,North,355,0.0,1.0,90,0.00,,,0.00,0,Wunderground v.1.15,2013-10-23 06:11:00,
2013-10-23 01:16:00,28.2,25.6,30.00,North,355,1.0,1.0,90,0.00,,,0.00,0,Wunderground v.1.15,2013-10-23 06:16:00,
2013-10-23 01:21:00,28.5,25.9,30.01,North,355,2.0,2.0,90,0.00,,,0.00,0,Wunderground v.1.15,2013-10-23 06:21:00,
2013-10-23 01:26:00,28.7,26.1,30.01,North,355,2.0,2.0,90,0.00,,,0.00,0,Wunderground v.1.15,2013-10-23 06:26:00,
2013-10-23 01:31:00,28.8,26.2,30.02,North,355,2.0,2.0,90,0.00,,,0.00,0,Wunderground v.1.15,2013-10-23 06:31:00,
2013-10-23 01:36:00,28.9,26.3,30.01,North,355,3.0,3.0,90,0.00,,,0.00,0,Wunderground v.1.15,2013-10-23 06:36:00,
2013-10-23 01:41:00,29.1,26.5,30.01,North,355,4.0,4.0,90,0.00,,,0.00,0,Wunderground v.1.15,2013-10-23 06:41:00,
2013-10-23 01:46:00,29.5,26.9,30.01,North,355,2.0,4.0,90,0.00,,,0.00,0,Wunderground v.1.15,2013-10-23 06:46:00,
2013-10-23 01:52:00,29.6,27.0,30.01,North,355,4.0,4.0,90,0.00,,,0.00,0,Wunderground v.1.15,2013-10-23 06:52:00,
2013-10-23 01:57:00,29.8,27.2,30.01,North,355,2.0,4.0,90,0.00,,,0.00,0,Wunderground v.1.15,2013-10-23 06:57:00,
2013-10-23 02:02:00,29.8,27.2,30.01,North,355,2.0,3.0,90,0.00,,,0.00,0,Wunderground v.1.15,2013-10-23 07:02:00,
2013-10-23 02:07:00,29.7,27.1,30.01,North,355,2.0,3.0,90,0.00,,,0.00,0,Wunderground v.1.15,2013-10-23 07:07:00,
2013-10-23 02:12:00,29.8,27.2,30.00,North,355,1.0,3.0,90,0.00,,,0.00,0,Wunderground v.1.15,2013-10-23 07:12:00,
2013-10-23 02:17:00,29.8,27.2,30.01,North,355,4.0,4.0,90,0.00,,,0.00,0,Wunderground v.1.15,2013-10-23 07:17:00,
2013-10-23 02:22:00,29.7,27.1,30.01,North,355,1.0,3.0,90,0.00,,,0.00,0,Wunderground v.1.15,2013-10-23 07:22:00,
2013-10-23 02:27:00,29.7,27.1,30.01,North,355,2.0,3.0,90,0.00,,,0.00,0,Wunderground v.1.15,2013-10-23 07:27:00,
2013-10-23 02:32:00,29.7,27.1,30.01,North,355,2.0,3.0,90,0.00,,,0.00,0,Wunderground v.1.15,2013-10-23 07:32:00,
2013-10-23 02:37:00,29.8,27.2,30.02,North,355,2.0,4.0,90,0.00,,,0.00,0,Wunderground v.1.15,2013-10-23 07:37:00,
2013-10-23 02:42:00,29.9,27.3,30.01,North,355,1.0,4.0,90,0.00,,,0.00,0,Wunderground v.1.15,2013-10-23 07:42:00,
2013-10-23 02:47:00,29.8,27.2,30.01,North,355,4.0,4.0,90,0.00,,,0.00,0,Wunderground v.1.15,2013-10-23 07:47:00,
2013-10-23 02:52:00,29.9,27.6,30.01,North,355,2.0,4.0,91,0.00,,,0.00,0,Wunderground v.1.15,2013-10-23 07:52:00,
2013-10-23 02:57:00,30.3,27.7,30.01,North,355,2.0,4.0,90,0.00,,,0.00,0,Wunderground v.1.15,2013-10-23 07:57:00,
2013-10-23 03:02:00,30.5,27.9,30.01,North,355,3.0,4.0,90,0.00,,,0.00,0,Wunderground v.1.15,2013-10-23 08:02:00,
2013-10-23 03:07:00,30.6,28.3,30.01,North,355,2.0,4.0,91,0.00,,,0.00,0,Wunderground v.1.15,2013-10-23 08:07:00,
2013-10-23 03:12:00,30.9,28.6,30.01,NNW,348,3.0,5.0,91,0.00,,,0.00,0,Wunderground v.1.15,2013-10-23 08:12:00,
2013-10-23 03:17:00,31.0,28.4,30.01,NNW,348,3.0,5.0,90,0.00,,,0.00,0,Wunderground v.1.15,2013-10-23 08:17:00,
2013-10-23 03:22:00,31.0,28.4,30.00,NNW,348,0.0,3.0,90,0.00,,,0.00,0,Wunderground v.1.15,2013-10-23 08:22:00,
2013-10-23 03:27:00,31.0,28.4,30.00,NNW,348,2.0,3.0,90,0.00,,,0.00,0,Wunderground v.1.15,2013-10-23 08:27:00,
2013-10-23 03:32:00,31.0,28.4,30.00,NNW,348,1.0,3.0,90,0.00,,,0.00,0,Wunderground v.1.15,2013-10-23 08:32:00,
2013-10-23 03:37:00,31.2,28.6,30.00,NNW,348,3.0,4.0,90,0.00,,,0.00,0,Wunderground v.1.15,2013-10-23 08:37:00,
2013-10-23 03:43:00,31.2,28.6,29.99,NNW,348,2.0,4.0,90,0.00,,,0.00,0,Wunderground v.1.15,2013-10-23 08:43:00,
2013-10-23 03:48:00,31.2,28.6,29.99,NNW,348,2.0,4.0,90,0.00,,,0.00,0,Wunderground v.1.15,2013-10-23 08:48:00,
2013-10-23 03:53:00,31.2,28.9,29.99,NNW,348,0.0,2.0,91,0.00,,,0.00,0,Wunderground v.1.15,2013-10-23 08:53:00,
2013-10-23 03:58:00,31.3,29.0,29.99,NNW,348,0.0,2.0,91,0.00,,,0.00,0,Wunderground v.1.15,2013-10-23 08:58:00,
2013-10-23 04:03:00,31.3,29.0,29.99,NNW,348,0.0,0.0,91,0.00,,,0.00,0,Wunderground v.1.15,2013-10-23 09:03:00,
2013-10-23 04:08:00,31.3,29.0,29.99,NNW,348,0.0,2.0,91,0.00,,,0.00,0,Wunderground v.1.15,2013-10-23 09:08:00,
2013-10-23 04:13:00,31.3,29.0,29.99,NNW,348,1.0,2.0,91,0.00,,,0.00,0,Wunderground v.1.15,2013-10-23 09:13:00,
2013-10-23 04:18:00,31.1,28.5,29.99,NNW,348,0.0,2.0,90,0.00,,,0.00,0,Wunderground v.1.15,2013-10-23 09:18:00,
2013-10-23 04:23:00,31.0,28.7,29.99,NNW,348,4.0,5.0,91,0.00,,,0.00,0,Wunderground v.1.15,2013-10-23 09:23:00,
2013-10-23 04:28:00,31.3,29.0,29.99,NNW,348,3.0,5.0,91,0.00,,,0.00,0,Wunderground v.1.15,2013-10-23 09:28:00,
2013-10-23 04:33:00,31.4,29.1,29.99,NNW,348,3.0,5.0,91,0.00,,,0.00,0,Wunderground v.1.15,2013-10-23 09:33:00,
2013-10-23 04:38:00,31.5,29.2,29.99,NNW,348,3.0,5.0,91,0.00,,,0.00,0,Wunderground v.1.15,2013-10-23 09:38:00,
2013-10-23 04:43:00,31.5,29.2,29.99,NNW,348,2.0,3.0,91,0.00,,,0.00,0,Wunderground v.1.15,2013-10-23 09:43:00,
2013-10-23 04:48:00,31.6,29.3,29.98,NNW,348,2.0,3.0,91,0.00,,,0.00,0,Wunderground v.1.15,2013-10-23 09:48:00,
2013-10-23 04:53:00,31.7,29.4,29.98,NNW,348,3.0,5.0,91,0.00,,,0.00,0,Wunderground v.1.15,2013-10-23 09:53:00,
2013-10-23 04:58:00,31.6,29.3,29.99,NNW,348,1.0,5.0,91,0.00,,,0.00,0,Wunderground v.1.15,2013-10-23 09:58:00,
2013-10-23 05:03:00,31.7,29.4,29.99,NNW,348,0.0,2.0,91,0.00,,,0.00,0,Wunderground v.1.15,2013-10-23 10:03:00,
2013-10-23 05:08:00,31.6,29.3,29.99,NNW,348,0.0,2.0,91,0.00,,,0.00,0,Wunderground v.1.15,2013-10-23 10:08:00,
2013-10-23 05:13:00,31.0,28.7,29.99,NNW,348,0.0,2.0,91,0.00,,,0.00,0,Wunderground v.1.15,2013-10-23 10:13:00,
2013-10-23 05:18:00,30.5,27.9,29.98,NNW,348,1.0,2.0,90,0.00,,,0.00,0,Wunderground v.1.15,2013-10-23 10:18:00,
2013-10-23 05:23:00,30.1,27.8,29.98,NNW,348,2.0,3.0,91,0.00,,,0.00,0,Wunderground v.1.15,2013-10-23 10:23:00,
2013-10-23 05:28:00,30.2,27.9,29.98,NNW,348,0.0,3.0,91,0.00,,,0.00,0,Wunderground v.1.15,2013-10-23 10:28:00,
2013-10-23 05:33:00,30.6,28.3,29.98,NNW,348,0.0,1.0,91,0.00,,,0.00,0,Wunderground v.1.15,2013-10-23 10:33:00,
2013-10-23 05:38:00,31.1,28.8,29.98,NNW,348,2.0,3.0,91,0.00,,,0.00,0,Wunderground v.1.15,2013-10-23 10:38:00,
2013-10-23 05:43:00,31.5,29.2,29.98,NNW,348,0.0,3.0,91,0.00,,,0.00,0,Wunderground v.1.15,2013-10-23 10:43:00,
2013-10-23 05:48:00,31.6,29.3,29.98,NNW,348,2.0,3.0,91,0.00,,,0.00,0,Wunderground v.1.15,2013-10-23 10:48:00,
2013-10-23 05:53:00,31.9,29.6,29.98,NNW,348,0.0,2.0,91,0.00,,,0.00,0,Wunderground v.1.15,2013-10-23 10:53:00,
2013-10-23 05:58:00,32.0,29.7,29.98,NNW,348,1.0,3.0,91,0.00,,,0.00,0,Wunderground v.1.15,2013-10-23 10:58:00,
2013-10-23 06:03:00,31.9,29.6,29.98,NNW,348,5.0,5.0,91,0.00,,,0.00,0,Wunderground v.1.15,2013-10-23 11:03:00,
2013-10-23 06:08:00,31.5,29.2,29.97,NNW,329,5.0,6.0,91,0.00,,,0.00,0,Wunderground v.1.15,2013-10-23 11:08:00,
2013-10-23 06:13:00,31.8,29.5,29.97,NW,317,1.0,4.0,91,0.00,,,0.00,0,Wunderground v.1.15,2013-10-23 11:13:00,
2013-10-23 06:18:00,32.1,29.8,29.98,NW,317,2.0,4.0,91,0.00,,,0.00,0,Wunderground v.1.15,2013-10-23 11:18:00,
2013-10-23 06:23:00,32.3,30.0,29.98,NW,317,2.0,4.0,91,0.00,,,0.00,0,Wunderground v.1.15,2013-10-23 11:23:00,
2013-10-23 06:28:00,32.3,30.0,29.98,NW,317,2.0,4.0,91,0.00,,,0.00,0,Wunderground v.1.15,2013-10-23 11:28:00,
2013-10-23 06:33:00,32.5,30.2,29.98,NW,317,1.0,2.0,91,0.00,,,0.00,0,Wunderground v.1.15,2013-10-23 11:33:00,
2013-10-23 06:38:00,32.6,30.3,29.98,NW,317,1.0,2.0,91,0.00,,,0.00,0,Wunderground v.1.15,2013-10-23 11:38:00,
2013-10-23 06:43:00,32.6,30.3,29.98,NW,317,0.0,1.0,91,0.00,,,0.00,0,Wunderground v.1.15,2013-10-23 11:43:00,
2013-10-23 06:48:00,32.8,30.5,29.98,NW,317,0.0,2.0,91,0.00,,,0.00,0,Wunderground v.1.15,2013-10-23 11:48:00,
2013-10-23 06:53:00,33.2,30.9,29.98,NW,317,1.0,2.0,91,0.00,,,0.00,0,Wunderground v.1.15,2013-10-23 11:53:00,
2013-10-23 06:58:00,33.4,31.1,29.98,NW,317,0.0,2.0,91,0.00,,,0.00,0,Wunderground v.1.15,2013-10-23 11:58:00,
2013-10-23 07:03:00,33.6,31.3,29.98,NW,317,0.0,1.0,91,0.00,,,0.00,0,Wunderground v.1.15,2013-10-23 12:03:00,
2013-10-23 07:08:00,33.7,31.4,29.98,NW,317,0.0,1.0,91,0.00,,,0.00,0,Wunderground v.1.15,2013-10-23 12:08:00,
2013-10-23 07:13:00,33.8,31.5,29.97,NW,317,3.0,4.0,91,0.00,,,0.00,0,Wunderground v.1.15,2013-10-23 12:13:00,
2013-10-23 07:18:00,34.0,31.6,29.97,NW,317,2.0,4.0,91,0.00,,,0.00,0,Wunderground v.1.15,2013-10-23 12:18:00,
2013-10-23 07:23:00,34.2,31.8,29.97,NW,317,2.0,4.0,91,0.00,,,0.00,0,Wunderground v.1.15,2013-10-23 12:23:00,
2013-10-23 07:28:00,34.3,31.9,29.97,NW,317,1.0,4.0,91,0.00,,,0.00,0,Wunderground v.1.15,2013-10-23 12:28:00,
2013-10-23 07:33:00,34.5,32.1,29.97,NW,317,0.0,2.0,91,0.00,,,0.00,0,Wunderground v.1.15,2013-10-23 12:33:00,
2013-10-23 07:38:00,34.8,32.4,29.97,NW,317,0.0,2.0,91,0.00,,,0.00,0,Wunderground v.1.15,2013-10-23 12:38:00,
2013-10-23 07:43:00,35.1,32.7,29.96,NW,317,3.0,3.0,91,0.00,,,0.00,0,Wunderground v.1.15,2013-10-23 12:43:00,
2013-10-23 07:48:00,35.5,33.1,29.96,NW,317,3.0,4.0,91,0.00,,,0.00,0,Wunderground v.1.15,2013-10-23 12:48:00,
2013-10-23 07:53:00,36.0,33.6,29.97,NW,310,3.0,4.0,91,0.00,,,0.00,0,Wunderground v.1.15,2013-10-23 12:53:00,
2013-10-23 07:58:00,36.4,34.0,29.96,WNW,283,4.0,6.0,91,0.00,,,0.00,0,Wunderground v.1.15,2013-10-23 12:58:00,
2013-10-23 08:03:00,36.6,34.2,29.96,WNW,283,4.0,5.0,91,0.00,,,0.00,0,Wunderground v.1.15,2013-10-23 13:03:00,
2013-10-23 08:08:00,36.8,34.4,29.95,SSW,210,5.0,8.0,91,0.00,,,0.00,5,Wunderground v.1.15,2013-10-23 13:08:00,
2013-10-23 08:13:00,36.9,34.5,29.96,SSW,210,5.0,6.0,91,0.00,,,0.00,9,Wunderground v.1.15,2013-10-23 13:13:00,
2013-10-23 08:18:00,37.1,34.7,29.96,SSW,197,6.0,8.0,91,0.00,,,0.00,11,Wunderground v.1.15,2013-10-23 13:18:00,
2013-10-23 08:23:00,37.3,34.9,29.96,SSW,195,8.0,8.0,91,0.00,,,0.00,18,Wunderground v.1.15,2013-10-23 13:23:00,
2013-10-23 08:28:00,37.6,35.2,29.96,SSW,192,6.0,9.0,91,0.00,,,0.00,19,Wunderground v.1.15,2013-10-23 13:28:00,
2013-10-23 08:33:00,37.8,35.4,29.95,SSW,192,7.0,10.0,91,0.00,,,0.00,21,Wunderground v.1.15,2013-10-23 13:33:00,
2013-10-23 08:38:00,38.0,35.6,29.95,SSW,192,5.0,10.0,91,0.00,,,0.00,23,Wunderground v.1.15,2013-10-23 13:38:00,
2013-10-23 08:43:00,38.2,35.8,29.96,SSW,194,5.0,7.0,91,0.00,,,0.00,28,Wunderground v.1.15,2013-10-23 13:43:00,
2013-10-23 08:48:00,38.4,36.0,29.96,SSW,194,3.0,7.0,91,0.00,,,0.00,37,Wunderground v.1.15,2013-10-23 13:48:00,
2013-10-23 08:53:00,38.6,36.2,29.95,SSW,194,5.0,7.0,91,0.00,,,0.00,46,Wunderground v.1.15,2013-10-23 13:53:00,
2013-10-23 08:58:00,38.7,36.3,29.95,SSW,194,7.0,7.0,91,0.00,,,0.00,60,Wunderground v.1.15,2013-10-23 13:58:00,
2013-10-23 09:03:00,38.9,36.5,29.95,SSW,195,6.0,7.0,91,0.00,,,0.00,67,Wunderground v.1.15,2013-10-23 14:03:00,
2013-10-23 09:08:00,39.2,36.8,29.96,SSW,196,7.0,8.0,91,0.00,,,0.00,70,Wunderground v.1.15,2013-10-23 14:08:00,
2013-10-23 09:13:00,39.4,37.0,29.95,SSW,196,6.0,7.0,91,0.00,,,0.00,97,Wunderground v.1.15,2013-10-23 14:13:00,
2013-10-23 09:18:00,39.7,37.0,29.95,SSW,201,8.0,9.0,90,0.00,,,0.00,105,Wunderground v.1.15,2013-10-23 14:18:00,
2013-10-23 09:23:00,40.0,37.6,29.94,SSW,196,7.0,11.0,91,0.00,,,0.00,91,Wunderground v.1.15,2013-10-23 14:23:00,
2013-10-23 09:28:00,40.2,37.5,29.95,SSW,198,7.0,12.0,90,0.00,,,0.00,104,Wunderground v.1.15,2013-10-23 14:28:00,
2013-10-23 09:33:00,40.5,37.8,29.95,SSW,201,6.0,13.0,90,0.00,,,0.00,137,Wunderground v.1.15,2013-10-23 14:33:00,
2013-10-23 09:38:00,41.0,38.3,29.94,SSW,194,9.0,13.0,90,0.00,,,0.00,132,Wunderground v.1.15,2013-10-23 14:38:00,
2013-10-23 09:43:00,41.3,38.6,29.94,SSW,209,5.0,11.0,90,0.00,,,0.00,153,Wunderground v.1.15,2013-10-23 14:43:00,
2013-10-23 09:48:00,41.6,38.9,29.94,SSW,205,6.0,11.0,90,0.00,,,0.00,113,Wunderground v.1.15,2013-10-23 14:48:00,
2013-10-23 09:53:00,41.9,39.2,29.94,South,191,3.0,9.0,90,0.00,,,0.00,100,Wunderground v.1.15,2013-10-23 14:53:00,
2013-10-23 09:58:00,42.1,39.4,29.94,SSW,200,6.0,9.0,90,0.00,,,0.00,116,Wunderground v.1.15,2013-10-23 14:58:00,
2013-10-23 10:03:00,42.2,39.5,29.94,SSW,200,6.0,11.0,90,0.00,,,0.00,137,Wunderground v.1.15,2013-10-23 15:03:00,
2013-10-23 10:08:00,42.5,39.5,29.93,SSW,194,6.0,11.0,89,0.00,,,0.00,162,Wunderground v.1.15,2013-10-23 15:08:00,
2013-10-23 10:13:00,42.5,39.5,29.93,SW,214,7.0,12.0,89,0.00,,,0.00,176,Wunderground v.1.15,2013-10-23 15:13:00,
2013-10-23 10:18:00,42.8,39.8,29.93,SSW,209,6.0,12.0,89,0.00,,,0.00,185,Wunderground v.1.15,2013-10-23 15:18:00,
2013-10-23 10:23:00,43.2,40.2,29.93,SSW,202,5.0,8.0,89,0.00,,,0.00,195,Wunderground v.1.15,2013-10-23 15:23:00,
2013-10-23 10:28:00,43.6,40.6,29.93,SSW,198,7.0,10.0,89,0.00,,,0.00,202,Wunderground v.1.15,2013-10-23 15:28:00,
2013-10-23 10:33:00,43.8,40.5,29.93,SSW,212,5.0,10.0,88,0.00,,,0.00,183,Wunderground v.1.15,2013-10-23 15:33:00,
2013-10-23 10:39:00,44.2,40.9,29.93,SSW,194,5.0,10.0,88,0.00,,,0.00,174,Wunderground v.1.15,2013-10-23 15:39:00,
2013-10-23 10:44:00,44.3,40.7,29.92,SSW,194,7.0,8.0,87,0.00,,,0.00,206,Wunderground v.1.15,2013-10-23 15:44:00,
2013-10-23 10:48:00,44.5,40.9,29.93,SW,221,4.0,9.0,87,0.00,,,0.00,218,Wunderground v.1.15,2013-10-23 15:48:00,
2013-10-23 10:53:00,44.9,41.0,29.94,SW,223,4.0,6.0,86,0.00,,,0.00,220,Wunderground v.1.15,2013-10-23 15:53:00,
2013-10-23 10:59:00,45.1,41.2,29.94,SW,224,2.0,6.0,86,0.00,,,0.00,229,Wunderground v.1.15,2013-10-23 15:59:00,
2013-10-23 11:04:00,45.4,41.2,29.95,SW,224,1.0,6.0,85,0.00,,,0.00,230,Wunderground v.1.15,2013-10-23 16:04:00,
2013-10-23 11:09:00,45.7,41.1,29.95,SW,225,2.0,6.0,84,0.00,,,0.00,241,Wunderground v.1.15,2013-10-23 16:09:00,
2013-10-23 11:14:00,46.1,41.5,29.95,WSW,239,6.0,6.0,84,0.00,,,0.00,251,Wunderground v.1.15,2013-10-23 16:14:00,
2013-10-23 11:19:00,46.4,41.8,29.95,WSW,239,3.0,6.0,84,0.00,,,0.00,255,Wunderground v.1.15,2013-10-23 16:19:00,
2013-10-23 11:24:00,46.6,41.7,29.95,WSW,239,3.0,4.0,83,0.00,,,0.00,255,Wunderground v.1.15,2013-10-23 16:24:00,
2013-10-23 11:29:00,46.7,41.5,29.95,WSW,239,0.0,4.0,82,0.00,,,0.00,264,Wunderground v.1.15,2013-10-23 16:29:00,
2013-10-23 11:34:00,47.0,41.8,29.94,WSW,239,0.0,3.0,82,0.00,,,0.00,281,Wunderground v.1.15,2013-10-23 16:34:00,
2013-10-23 11:39:00,47.1,41.9,29.94,WSW,239,0.0,3.0,82,0.00,,,0.00,276,Wunderground v.1.15,2013-10-23 16:39:00,
2013-10-23 11:44:00,47.5,42.0,29.95,West,259,1.0,6.0,81,0.00,,,0.00,320,Wunderground v.1.15,2013-10-23 16:44:00,
2013-10-23 11:49:00,47.7,42.2,29.95,WNW,297,4.0,6.0,81,0.00,,,0.00,346,Wunderground v.1.15,2013-10-23 16:49:00,
2013-10-23 11:54:00,47.8,41.9,29.95,NNW,342,3.0,8.0,80,0.00,,,0.00,383,Wunderground v.1.15,2013-10-23 16:54:00,
2013-10-23 11:59:00,48.1,42.2,29.96,North,355,5.0,12.0,80,0.00,,,0.00,418,Wunderground v.1.15,2013-10-23 16:59:00,
2013-10-23 12:04:00,48.5,42.3,29.96,NNW,344,6.0,9.0,79,0.00,,,0.00,385,Wunderground v.1.15,2013-10-23 17:04:00,
2013-10-23 12:09:00,48.8,42.6,29.96,WNW,297,9.0,10.0,79,0.00,,,0.00,473,Wunderground v.1.15,2013-10-23 17:09:00,
2013-10-23 12:14:00,48.9,42.3,29.96,NW,305,6.0,11.0,78,0.00,,,0.00,374,Wunderground v.1.15,2013-10-23 17:14:00,
2013-10-23 12:19:00,48.9,41.7,29.96,North,5,3.0,14.0,76,0.00,,,0.00,355,Wunderground v.1.15,2013-10-23 17:19:00,
2013-10-23 12:24:00,48.9,41.7,29.96,NNW,341,6.0,9.0,76,0.00,,,0.00,329,Wunderground v.1.15,2013-10-23 17:24:00,
2013-10-23 12:29:00,48.9,41.3,29.96,NNE,28,3.0,9.0,75,0.00,,,0.00,320,Wunderground v.1.15,2013-10-23 17:29:00,
2013-10-23 12:34:00,48.9,41.3,29.96,North,9,6.0,7.0,75,0.00,,,0.00,320,Wunderground v.1.15,2013-10-23 17:34:00,
2013-10-23 12:39:00,48.9,41.3,29.96,North,5,9.0,9.0,75,0.00,,,0.00,283,Wunderground v.1.15,2013-10-23 17:39:00,
2013-10-23 12:44:00,48.7,41.1,29.96,North,355,3.0,10.0,75,0.00,,,0.00,290,Wunderground v.1.15,2013-10-23 17:44:00,
2013-10-23 12:49:00,48.7,40.8,29.97,NNW,346,6.0,10.0,74,0.00,,,0.00,257,Wunderground v.1.15,2013-10-23 17:49:00,
2013-10-23 12:54:00,48.7,41.1,29.97,North,355,6.0,9.0,75,0.00,,,0.00,269,Wunderground v.1.15,2013-10-23 17:54:00,
2013-10-23 12:59:00,48.9,41.3,29.98,NNW,340,11.0,11.0,75,0.00,,,0.00,323,Wunderground v.1.15,2013-10-23 17:59:00,
2013-10-23 13:05:00,49.0,41.4,29.98,North,355,2.0,10.0,75,0.00,,,0.00,283,Wunderground v.1.15,2013-10-23 18:05:00,
2013-10-23 13:10:00,49.0,41.1,29.98,North,355,5.0,6.0,74,0.00,,,0.00,253,Wunderground v.1.15,2013-10-23 18:10:00,
2013-10-23 13:15:00,49.1,41.5,29.98,NNW,340,7.0,9.0,75,0.00,,,0.00,200,Wunderground v.1.15,2013-10-23 18:15:00,
2013-10-23 13:20:00,49.0,40.7,29.98,NNW,348,8.0,8.0,73,0.00,,,0.00,172,Wunderground v.1.15,2013-10-23 18:20:00,
2013-10-23 13:25:00,48.9,40.6,29.98,NE,34,6.0,9.0,73,0.00,,,0.00,267,Wunderground v.1.15,2013-10-23 18:25:00,
2013-10-23 13:30:00,49.1,40.8,29.98,NNW,342,4.0,5.0,73,0.00,,,0.00,167,Wunderground v.1.15,2013-10-23 18:30:00,
2013-10-23 13:35:00,49.2,40.6,29.98,North,360,4.0,8.0,72,0.00,,,0.00,202,Wunderground v.1.15,2013-10-23 18:35:00,
2013-10-23 13:40:00,49.3,41.0,29.98,NNW,340,3.0,5.0,73,0.00,,,0.00,285,Wunderground v.1.15,2013-10-23 18:40:00,
2013-10-23 13:45:00,49.5,40.8,29.98,North,5,8.0,13.0,72,0.00,,,0.00,306,Wunderground v.1.15,2013-10-23 18:45:00,
2013-10-23 13:50:00,49.7,41.0,29.98,NNE,22,5.0,7.0,72,0.00,,,0.00,251,Wunderground v.1.15,2013-10-23 18:50:00,
2013-10-23 13:55:00,49.6,40.6,29.98,North,355,4.0,12.0,71,0.00,,,0.00,98,Wunderground v.1.15,2013-10-23 18:55:00,
2013-10-23 14:00:00,49.4,40.7,29.99,North,355,8.0,8.0,72,0.00,,,0.00,79,Wunderground v.1.15,2013-10-23 19:00:00,
2013-10-23 14:05:00,49.2,40.6,29.99,NNW,344,5.0,11.0,72,0.00,,,0.00,53,Wunderground v.1.15,2013-10-23 19:05:00,
2013-10-23 14:10:00,48.9,40.6,29.99,NNW,342,3.0,5.0,73,0.00,,,0.00,65,Wunderground v.1.15,2013-10-23 19:10:00,
2013-10-23 14:15:00,48.8,40.5,29.99,NNW,348,7.0,12.0,73,0.00,,,0.00,86,Wunderground v.1.15,2013-10-23 19:15:00,
2013-10-23 14:20:00,48.7,40.8,29.99,North,9,6.0,6.0,74,0.00,,,0.00,90,Wunderground v.1.15,2013-10-23 19:20:00,
2013-10-23 14:25:00,48.7,40.8,29.99,NNE,12,10.0,13.0,74,0.00,,,0.00,144,Wunderground v.1.15,2013-10-23 19:25:00,
2013-10-23 14:30:00,48.6,40.7,29.99,North,355,6.0,11.0,74,0.00,,,0.00,109,Wunderground v.1.15,2013-10-23 19:30:00,
2013-10-23 14:35:00,48.5,40.9,30.00,North,5,9.0,13.0,75,0.00,,,0.00,116,Wunderground v.1.15,2013-10-23 19:35:00,
2013-10-23 14:40:00,48.4,40.8,30.00,NNW,345,8.0,12.0,75,0.00,,,0.00,86,Wunderground v.1.15,2013-10-23 19:40:00,
2013-10-23 14:45:00,48.1,40.9,30.00,NNE,32,3.0,15.0,76,0.00,,,0.00,70,Wunderground v.1.15,2013-10-23 19:45:00,
2013-10-23 14:50:00,47.6,40.4,30.00,NNE,16,10.0,11.0,76,0.00,,,0.00,98,Wunderground v.1.15,2013-10-23 19:50:00,
2013-10-23 14:55:00,47.3,40.5,30.01,NNE,12,3.0,14.0,77,0.00,,,0.00,95,Wunderground v.1.15,2013-10-23 19:55:00,
2013-10-23 15:00:00,47.0,40.5,30.01,NNE,18,6.0,7.0,78,0.00,,,0.00,113,Wunderground v.1.15,2013-10-23 20:00:00,
2013-10-23 15:05:00,46.6,40.1,30.02,NW,322,8.0,15.0,78,0.00,,,0.00,93,Wunderground v.1.15,2013-10-23 20:05:00,
2013-10-23 15:10:00,46.1,39.9,30.02,North,5,6.0,15.0,79,0.00,,,0.00,188,Wunderground v.1.15,2013-10-23 20:10:00,
2013-10-23 15:15:00,45.8,40.0,30.02,NNE,25,10.0,17.0,80,0.00,,,0.00,260,Wunderground v.1.15,2013-10-23 20:15:00,
2013-10-23 15:20:00,45.7,39.9,30.02,NE,44,6.0,9.0,80,0.00,,,0.00,332,Wunderground v.1.15,2013-10-23 20:20:00,
2013-10-23 15:25:00,46.0,40.5,30.02,North,355,6.0,11.0,81,0.00,,,0.00,225,Wunderground v.1.15,2013-10-23 20:25:00,
2013-10-23 15:30:00,46.3,40.5,30.02,NNW,329,8.0,9.0,80,0.00,,,0.00,429,Wunderground v.1.15,2013-10-23 20:30:00,
2013-10-23 15:35:00,46.4,40.6,30.02,NNE,16,7.0,10.0,80,0.00,,,0.00,306,Wunderground v.1.15,2013-10-23 20:35:00,
2013-10-23 15:40:00,46.2,40.0,30.03,North,5,3.0,7.0,79,0.00,,,0.00,123,Wunderground v.1.15,2013-10-23 20:40:00,
2013-10-23 15:45:00,45.9,39.8,30.03,NNW,345,4.0,10.0,79,0.00,,,0.00,100,Wunderground v.1.15,2013-10-23 20:45:00,
2013-10-23 15:50:00,45.6,39.5,30.03,NW,313,5.0,5.0,79,0.00,,,0.00,105,Wunderground v.1.15,2013-10-23 20:50:00,
2013-10-23 15:55:00,45.4,39.3,30.03,NNW,346,9.0,13.0,79,0.00,,,0.00,111,Wunderground v.1.15,2013-10-23 20:55:00,
2013-10-23 16:00:00,45.2,38.7,30.03,North,350,5.0,7.0,78,0.00,,,0.00,107,Wunderground v.1.15,2013-10-23 21:00:00,
2013-10-23 16:05:00,45.3,39.2,30.03,North,355,5.0,13.0,79,0.00,,,0.00,104,Wunderground v.1.15,2013-10-23 21:05:00,
2013-10-23 16:11:00,45.3,38.8,30.04,NNW,343,10.0,12.0,78,0.00,,,0.00,86,Wunderground v.1.15,2013-10-23 21:11:00,
2013-10-23 16:16:00,45.2,39.1,30.04,NNW,346,8.0,13.0,79,0.00,,,0.00,105,Wunderground v.1.15,2013-10-23 21:16:00,
2013-10-23 16:21:00,45.0,38.9,30.04,North,5,5.0,8.0,79,0.00,,,0.00,104,Wunderground v.1.15,2013-10-23 21:21:00,
2013-10-23 16:26:00,45.0,38.9,30.04,North,349,6.0,10.0,79,0.00,,,0.00,95,Wunderground v.1.15,2013-10-23 21:26:00,
2013-10-23 16:31:00,45.0,38.9,30.04,NNW,331,7.0,10.0,79,0.00,,,0.00,111,Wunderground v.1.15,2013-10-23 21:31:00,
2013-10-23 16:36:00,45.0,38.9,30.05,North,5,4.0,14.0,79,0.00,,,0.00,100,Wunderground v.1.15,2013-10-23 21:36:00,
2013-10-23 16:41:00,44.9,38.8,30.05,NNE,17,4.0,7.0,79,0.00,,,0.00,84,Wunderground v.1.15,2013-10-23 21:41:00,
2013-10-23 16:46:00,44.8,38.7,30.05,NNW,340,8.0,12.0,79,0.00,,,0.00,63,Wunderground v.1.15,2013-10-23 21:46:00,
2013-10-23 16:51:00,44.7,38.6,30.05,NNE,30,7.0,8.0,79,0.00,,,0.00,47,Wunderground v.1.15,2013-10-23 21:51:00,
2013-10-23 16:56:00,44.5,38.1,30.05,North,5,7.0,12.0,78,0.00,,,0.00,44,Wunderground v.1.15,2013-10-23 21:56:00,
2013-10-23 17:01:00,44.4,38.3,30.06,NNW,332,5.0,8.0,79,0.00,,,0.00,49,Wunderground v.1.15,2013-10-23 22:01:00,
2013-10-23 17:06:00,44.3,38.2,30.06,North,349,8.0,10.0,79,0.00,,,0.00,53,Wunderground v.1.15,2013-10-23 22:06:00,
2013-10-23 17:11:00,44.2,38.1,30.06,NNW,335,6.0,8.0,79,0.00,,,0.00,56,Wunderground v.1.15,2013-10-23 22:11:00,
2013-10-23 17:16:00,44.2,38.1,30.06,North,355,2.0,8.0,79,0.00,,,0.00,62,Wunderground v.1.15,2013-10-23 22:16:00,
2013-10-23 17:21:00,44.3,38.5,30.06,North,5,5.0,7.0,80,0.00,,,0.00,49,Wunderground v.1.15,2013-10-23 22:21:00,
2013-10-23 17:26:00,44.2,38.1,30.06,North,5,5.0,9.0,79,0.00,,,0.00,39,Wunderground v.1.15,2013-10-23 22:26:00,
2013-10-23 17:31:00,44.2,38.1,30.06,North,350,5.0,8.0,79,0.00,,,0.00,21,Wunderground v.1.15,2013-10-23 22:31:00,
2013-10-23 17:36:00,44.1,38.3,30.06,North,355,1.0,10.0,80,0.00,,,0.00,14,Wunderground v.1.15,2013-10-23 22:36:00,
2013-10-23 17:41:00,44.0,38.2,30.06,North,355,6.0,6.0,80,0.00,,,0.00,18,Wunderground v.1.15,2013-10-23 22:41:00,
2013-10-23 17:46:00,44.0,38.2,30.07,NNW,331,5.0,10.0,80,0.00,,,0.00,12,Wunderground v.1.15,2013-10-23 22:46:00,
2013-10-23 17:51:00,43.9,38.1,30.07,NNW,339,5.0,7.0,80,0.00,,,0.00,18,Wunderground v.1.15,2013-10-23 22:51:00,
2013-10-23 17:56:00,43.9,38.1,30.07,NNW,340,3.0,7.0,80,0.00,,,0.00,12,Wunderground v.1.15,2013-10-23 22:56:00,
2013-10-23 18:01:00,43.8,38.3,30.07,NNW,335,4.0,5.0,81,0.00,,,0.00,7,Wunderground v.1.15,2013-10-23 23:01:00,
2013-10-23 18:06:00,43.8,38.3,30.07,North,350,4.0,11.0,81,0.00,,,0.00,5,Wunderground v.1.15,2013-10-23 23:06:00,
2013-10-23 18:11:00,43.7,38.3,30.07,North,355,3.0,5.0,81,0.00,,,0.00,0,Wunderground v.1.15,2013-10-23 23:11:00,
2013-10-23 18:16:00,43.6,38.2,30.07,North,355,4.0,8.0,81,0.00,,,0.00,0,Wunderground v.1.15,2013-10-23 23:16:00,
2013-10-23 18:21:00,43.6,38.2,30.07,North,355,4.0,4.0,81,0.00,,,0.00,0,Wunderground v.1.15,2013-10-23 23:21:00,
2013-10-23 18:26:00,43.5,38.4,30.07,North,355,3.0,7.0,82,0.00,,,0.00,0,Wunderground v.1.15,2013-10-23 23:26:00,
2013-10-23 18:31:00,43.5,38.4,30.07,North,360,8.0,8.0,82,0.00,,,0.00,0,Wunderground v.1.15,2013-10-23 23:31:00,
2013-10-23 18:36:00,43.4,38.3,30.07,NNE,22,7.0,10.0,82,0.00,,,0.00,0,Wunderground v.1.15,2013-10-23 23:36:00,
2013-10-23 18:41:00,43.3,38.2,30.07,NNE,26,6.0,9.0,82,0.00,,,0.00,0,Wunderground v.1.15,2013-10-23 23:41:00,
2013-10-23 18:46:00,43.1,38.0,30.08,North,9,7.0,10.0,82,0.00,,,0.00,0,Wunderground v.1.15,2013-10-23 23:46:00,
2013-10-23 18:51:00,43.0,37.9,30.07,North,10,3.0,5.0,82,0.00,,,0.00,0,Wunderground v.1.15,2013-10-23 23:51:00,
2013-10-23 18:56:00,42.8,37.7,30.08,NNE,14,5.0,11.0,82,0.00,,,0.00,0,Wunderground v.1.15,2013-10-23 23:56:00,
2013-10-23 19:01:00,42.7,37.6,30.07,North,9,4.0,6.0,82,0.00,,,0.00,0,Wunderground v.1.15,2013-10-24 00:01:00,
2013-10-23 19:06:00,42.6,37.5,30.08,NNE,23,9.0,9.0,82,0.00,,,0.00,0,Wunderground v.1.15,2013-10-24 00:06:00,
2013-10-23 19:12:00,42.4,37.3,30.08,NNE,22,9.0,9.0,82,0.00,,,0.00,0,Wunderground v.1.15,2013-10-24 00:12:00,
2013-10-23 19:18:00,42.2,37.4,30.08,NNE,22,7.0,9.0,83,0.00,,,0.00,0,Wunderground v.1.15,2013-10-24 00:18:00,
2013-10-23 19:23:00,42.0,37.2,30.08,North,5,5.0,7.0,83,0.00,,,0.00,0,Wunderground v.1.15,2013-10-24 00:23:00,
2013-10-23 19:28:00,41.9,37.1,30.08,NNE,25,6.0,7.0,83,0.00,,,0.00,0,Wunderground v.1.15,2013-10-24 00:28:00,
2013-10-23 19:34:00,41.6,37.1,30.09,North,5,4.0,8.0,84,0.00,,,0.00,0,Wunderground v.1.15,2013-10-24 00:34:00,
2013-10-23 19:39:00,41.5,37.0,30.09,North,5,5.0,8.0,84,0.00,,,0.00,0,Wunderground v.1.15,2013-10-24 00:39:00,
2013-10-23 19:44:00,41.3,36.8,30.09,North,5,4.0,6.0,84,0.00,,,0.00,0,Wunderground v.1.15,2013-10-24 00:44:00,
2013-10-23 19:49:00,41.3,36.8,30.09,North,5,0.0,7.0,84,0.00,,,0.00,0,Wunderground v.1.15,2013-10-24 00:49:00,
2013-10-23 19:54:00,41.2,37.0,30.10,North,5,1.0,6.0,85,0.00,,,0.00,0,Wunderground v.1.15,2013-10-24 00:54:00,
2013-10-23 19:59:00,41.2,37.0,30.10,North,5,0.0,6.0,85,0.00,,,0.00,0,Wunderground v.1.15,2013-10-24 00:59:00,
2013-10-23 20:04:00,41.1,36.9,30.10,North,5,2.0,5.0,85,0.00,,,0.00,0,Wunderground v.1.15,2013-10-24 01:04:00,
2013-10-23 20:09:00,41.1,36.9,30.10,North,5,5.0,6.0,85,0.00,,,0.00,0,Wunderground v.1.15,2013-10-24 01:09:00,
2013-10-23 20:14:00,41.0,36.8,30.11,North,9,2.0,9.0,85,0.00,,,0.00,0,Wunderground v.1.15,2013-10-24 01:14:00,